Time;durP1;ratioP1;P1;durP2;ratioP2;P2;SDS_P1;SDS_P2;PMS_P1;PMS_P2;Temp;Humidity;BMP_temperature;BMP_pressure;BME280_temperature;BME280_humidity;BME280_pressure;Samples;Min_cycle;Max_cycle;Signal;HPM_P1;HPM_P2
2023/05/22 00:01:50;;;;;;;18.08;13.30;;;;;;;;;;5050464;28;20049;-67
2023/05/22 00:04:20;;;;;;;19.10;14.15;;;;;;;;;;5051050;28;20122;-68
2023/05/22 00:06:47;;;;;;;17.40;13.40;;;;;;;;;;5050760;28;20600;-67
2023/05/22 00:09:13;;;;;;;20.85;14.98;;;;;;;;;;5051113;28;20139;-67
2023/05/22 00:11:40;;;;;;;21.60;14.75;;;;;;;;;;5050750;28;20076;-68
2023/05/22 00:14:07;;;;;;;22.85;14.27;;;;;;;;;;5050988;28;20045;-67
2023/05/22 00:16:33;;;;;;;18.63;13.85;;;;;;;;;;5050318;28;20053;-67
2023/05/22 00:19:00;;;;;;;18.23;13.95;;;;;;;;;;5051265;28;20052;-68
2023/05/22 00:21:33;;;;;;;18.90;14.25;;;;;;;;;;5050314;28;20483;-67
2023/05/22 00:23:59;;;;;;;;;;;;;;;;;;5051492;28;20136;-67
2023/05/22 00:26:26;;;;;;;18.23;13.85;;;;;;;;;;5050490;28;20405;-68
2023/05/22 00:28:52;;;;;;;20.30;14.65;;;;;;;;;;5051091;28;20046;-68
2023/05/22 00:31:19;;;;;;;21.25;14.65;;;;;;;;;;5050609;28;20059;-68
2023/05/22 00:33:45;;;;;;;19.17;15.15;;;;;;;;;;5050661;28;20069;-67
2023/05/22 00:36:12;;;;;;;18.98;14.80;;;;;;;;;;5050633;28;20407;-67
2023/05/22 00:38:40;;;;;;;20.65;15.23;;;;;;;;;;5050284;28;20454;-67
2023/05/22 00:41:07;;;;;;;20.77;15.45;;;;;;;;;;5049981;28;20414;-68
2023/05/22 00:43:34;;;;;;;22.85;15.15;;;;;;;;;;5050114;28;20510;-67
2023/05/22 00:46:00;;;;;;;19.17;14.88;;;;;;;;;;5050742;28;20095;-68
2023/05/22 00:48:27;;;;;;;20.27;15.50;;;;;;;;;;5050018;28;20052;-67
2023/05/22 00:50:55;;;;;;;21.02;15.40;;;;;;;;;;5050351;28;20049;-66
2023/05/22 00:53:24;;;;;;;19.73;14.60;;;;;;;;;;5050297;28;20045;-67
2023/05/22 00:55:53;;;;;;;20.67;15.80;;;;;;;;;;5050311;28;20087;-67
2023/05/22 00:58:20;;;;;;;20.65;14.85;;;;;;;;;;5049754;28;20045;-67
2023/05/22 01:00:47;;;;;;;20.08;14.52;;;;;;;;;;5050274;28;20534;-68
2023/05/22 01:03:14;;;;;;;20.63;14.15;;;;;;;;;;5050259;28;20049;-67
2023/05/22 01:05:41;;;;;;;23.35;14.15;;;;;;;;;;5049979;28;20645;-67
2023/05/22 01:08:09;;;;;;;19.33;13.77;;;;;;;;;;5050196;28;20041;-67
2023/05/22 01:10:37;;;;;;;20.90;14.15;;;;;;;;;;5049494;28;20049;-67
2023/05/22 01:13:14;;;;;;;20.30;15.13;;;;;;;;;;5050005;28;20056;-67
2023/05/22 01:15:46;;;;;;;20.25;14.55;;;;;;;;;;5049867;28;20045;-67
2023/05/22 01:18:25;;;;;;;19.35;14.88;;;;;;;;;;5050438;28;20064;-67
2023/05/22 01:20:56;;;;;;;24.30;14.80;;;;;;;;;;5049887;28;20049;-67
2023/05/22 01:24:00;;;;;;;20.10;15.30;;;;;;;;;;5049942;28;20463;-67
2023/05/22 01:27:02;;;;;;;21.20;14.77;;;;;;;;;;5049565;28;20071;-67
2023/05/22 01:29:43;;;;;;;21.08;15.40;;;;;;;;;;5049610;28;20609;-66
2023/05/22 01:32:14;;;;;;;21.45;15.10;;;;;;;;;;5050199;28;20084;-67
2023/05/22 01:34:44;;;;;;;20.00;15.18;;;;;;;;;;5050176;28;20406;-67
2023/05/22 01:37:12;;;;;;;21.98;15.52;;;;;;;;;;5050047;28;20041;-67
2023/05/22 01:39:40;;;;;;;22.83;15.20;;;;;;;;;;5049613;28;20135;-67
2023/05/22 01:42:07;;;;;;;21.55;15.23;;;;;;;;;;5049518;28;20057;-68
2023/05/22 01:44:34;;;;;;;21.40;15.75;;;;;;;;;;5050347;28;20493;-67
2023/05/22 01:47:04;;;;;;;21.13;14.90;;;;;;;;;;5049304;28;20509;-68
2023/05/22 01:49:32;;;;;;;20.58;14.82;;;;;;;;;;5049652;28;20048;-68
2023/05/22 01:52:08;;;;;;;20.50;15.00;;;;;;;;;;5049667;28;20495;-67
2023/05/22 01:54:41;;;;;;;21.10;15.25;;;;;;;;;;5049768;28;20045;-67
2023/05/22 01:57:13;;;;;;;19.92;15.10;;;;;;;;;;5049555;28;20045;-67
2023/05/22 01:59:47;;;;;;;20.42;14.43;;;;;;;;;;5049351;28;20045;-67
2023/05/22 02:02:16;;;;;;;22.45;14.75;;;;;;;;;;5049267;28;20131;-67
2023/05/22 02:04:46;;;;;;;19.58;14.38;;;;;;;;;;5049642;28;20045;-67
2023/05/22 02:07:15;;;;;;;19.52;14.57;;;;;;;;;;5048947;28;20380;-68
2023/05/22 02:09:44;;;;;;;21.40;15.55;;;;;;;;;;5049338;28;20517;-67
2023/05/22 02:12:11;;;;;;;20.10;14.48;;;;;;;;;;5049070;28;20049;-67
2023/05/22 02:14:38;;;;;;;20.42;14.32;;;;;;;;;;5052787;28;20529;-67
2023/05/22 02:17:06;;;;;;;23.00;15.25;;;;;;;;;;5052599;28;20456;-67
2023/05/22 02:19:34;;;;;;;22.50;16.13;;;;;;;;;;5052483;28;20390;-67
2023/05/22 02:22:02;;;;;;;19.35;14.68;;;;;;;;;;5053033;28;20045;-67
2023/05/22 02:24:29;;;;;;;20.85;14.95;;;;;;;;;;5053054;28;20051;-67
2023/05/22 02:26:56;;;;;;;23.95;14.90;;;;;;;;;;5053168;28;20414;-67
2023/05/22 02:29:23;;;;;;;19.35;14.70;;;;;;;;;;5052547;28;20045;-67
2023/05/22 02:31:49;;;;;;;21.15;15.23;;;;;;;;;;5052732;28;20521;-67
2023/05/22 02:34:16;;;;;;;21.45;14.90;;;;;;;;;;5052359;28;20056;-67
2023/05/22 02:36:42;;;;;;;22.20;15.13;;;;;;;;;;5052912;28;20522;-67
2023/05/22 02:39:10;;;;;;;18.50;13.50;;;;;;;;;;5052876;28;20052;-67
2023/05/22 02:41:37;;;;;;;19.45;13.88;;;;;;;;;;5052994;28;20064;-67
2023/05/22 02:44:04;;;;;;;19.13;13.98;;;;;;;;;;5053005;28;20041;-67
2023/05/22 02:46:30;;;;;;;20.27;14.30;;;;;;;;;;5052880;28;20045;-68
2023/05/22 02:48:57;;;;;;;19.10;14.07;;;;;;;;;;5052324;28;20052;-67
2023/05/22 02:51:23;;;;;;;19.92;14.18;;;;;;;;;;5052337;28;20072;-67
2023/05/22 02:53:50;;;;;;;19.40;14.25;;;;;;;;;;5052355;28;20483;-67
2023/05/22 02:56:19;;;;;;;19.20;14.10;;;;;;;;;;5052510;28;20053;-67
2023/05/22 02:58:46;;;;;;;20.35;14.02;;;;;;;;;;5052400;28;20045;-67
2023/05/22 03:01:12;;;;;;;17.77;13.82;;;;;;;;;;5051472;28;20053;-67
2023/05/22 03:03:39;;;;;;;18.50;13.55;;;;;;;;;;5052567;28;20505;-67
2023/05/22 03:06:07;;;;;;;19.40;13.77;;;;;;;;;;5063266;22;20143;-65
2023/05/22 03:08:37;;;;;;;18.88;13.60;;;;;;;;;;5052276;28;20049;-65
2023/05/22 03:11:03;;;;;;;20.48;13.27;;;;;;;;;;5051234;28;20111;-66
2023/05/22 03:13:31;;;;;;;19.58;13.35;;;;;;;;;;5051940;28;20041;-66
2023/05/22 03:15:58;;;;;;;17.00;13.18;;;;;;;;;;5051176;28;20426;-65
2023/05/22 03:18:25;;;;;;;18.02;13.45;;;;;;;;;;5051920;28;20490;-65
2023/05/22 03:20:51;;;;;;;19.00;13.90;;;;;;;;;;5051003;28;20049;-65
2023/05/22 03:23:19;;;;;;;21.50;14.07;;;;;;;;;;5051949;28;20045;-65
2023/05/22 03:25:46;;;;;;;18.70;13.55;;;;;;;;;;5051667;28;20045;-65
2023/05/22 03:28:13;;;;;;;20.35;13.18;;;;;;;;;;5051586;28;20517;-65
2023/05/22 03:30:40;;;;;;;19.10;14.88;;;;;;;;;;5050687;28;20045;-65
2023/05/22 03:33:07;;;;;;;20.13;15.40;;;;;;;;;;5051996;28;20060;-65
2023/05/22 03:35:33;;;;;;;20.40;14.90;;;;;;;;;;5051417;28;20061;-65
2023/05/22 03:38:00;;;;;;;19.95;15.07;;;;;;;;;;5051157;28;20056;-65
2023/05/22 03:40:27;;;;;;;19.98;15.15;;;;;;;;;;5051030;28;20056;-65
2023/05/22 03:42:54;;;;;;;20.20;14.15;;;;;;;;;;5050900;28;20049;-66
2023/05/22 03:45:20;;;;;;;20.58;14.07;;;;;;;;;;5051465;28;20490;-65
2023/05/22 03:47:48;;;;;;;21.02;14.00;;;;;;;;;;5051368;28;20061;-65
2023/05/22 03:50:15;;;;;;;20.67;15.52;;;;;;;;;;5051452;28;20045;-65
2023/05/22 03:52:41;;;;;;;21.38;14.98;;;;;;;;;;5051319;28;20071;-65
2023/05/22 03:55:08;;;;;;;18.88;14.00;;;;;;;;;;5051364;28;20056;-65
2023/05/22 03:57:35;;;;;;;22.63;15.57;;;;;;;;;;5050383;28;20056;-66
2023/05/22 04:00:08;;;;;;;21.10;14.20;;;;;;;;;;5051060;28;20052;-65
2023/05/22 04:02:37;;;;;;;21.30;14.82;;;;;;;;;;5050703;28;20103;-65
2023/05/22 04:05:07;;;;;;;21.85;14.88;;;;;;;;;;5051032;28;20047;-65
2023/05/22 04:07:35;;;;;;;19.25;14.73;;;;;;;;;;5050518;28;20053;-65
2023/05/22 04:10:02;;;;;;;20.85;14.07;;;;;;;;;;5050334;28;20437;-65
2023/05/22 04:12:28;;;;;;;20.20;13.85;;;;;;;;;;5050857;28;20056;-65
2023/05/22 04:14:55;;;;;;;22.27;14.48;;;;;;;;;;5050608;28;20048;-65
2023/05/22 04:17:21;;;;;;;21.25;13.88;;;;;;;;;;5050682;28;20479;-65
2023/05/22 04:19:48;;;;;;;24.45;14.18;;;;;;;;;;5049777;28;20052;-65
2023/05/22 04:22:16;;;;;;;19.95;14.93;;;;;;;;;;5051086;28;20045;-65
2023/05/22 04:24:42;;;;;;;19.48;13.82;;;;;;;;;;5050143;28;20131;-65
2023/05/22 04:27:09;;;;;;;23.83;14.25;;;;;;;;;;5050449;28;20045;-65
2023/05/22 04:29:36;;;;;;;20.80;14.57;;;;;;;;;;5049847;28;20045;-65
2023/05/22 04:32:02;;;;;;;21.75;15.00;;;;;;;;;;5050419;28;20060;-66
2023/05/22 04:34:29;;;;;;;22.77;14.43;;;;;;;;;;5049989;28;20417;-66
2023/05/22 04:36:56;;;;;;;26.65;14.20;;;;;;;;;;5049681;28;20090;-66
2023/05/22 04:39:25;;;;;;;19.40;14.32;;;;;;;;;;5049779;28;20087;-66
2023/05/22 04:41:51;;;;;;;18.13;13.98;;;;;;;;;;5050096;28;20059;-66
2023/05/22 04:44:21;;;;;;;19.88;13.63;;;;;;;;;;5049718;28;20056;-66
2023/05/22 04:46:48;;;;;;;18.83;13.85;;;;;;;;;;5050220;28;20053;-66
2023/05/22 04:49:14;;;;;;;17.88;13.90;;;;;;;;;;5050281;28;20521;-66
2023/05/22 04:51:41;;;;;;;19.90;14.32;;;;;;;;;;5049305;28;20048;-66
2023/05/22 04:54:07;;;;;;;23.33;14.82;;;;;;;;;;5050426;28;20052;-66
2023/05/22 04:56:35;;;;;;;21.17;14.23;;;;;;;;;;5049937;28;20053;-66
2023/05/22 04:59:04;;;;;;;21.70;13.57;;;;;;;;;;5050542;28;20049;-66
2023/05/22 05:01:30;;;;;;;23.15;15.45;;;;;;;;;;5049622;28;20048;-66
2023/05/22 05:03:57;;;;;;;20.70;14.02;;;;;;;;;;5050195;28;20044;-66
2023/05/22 05:06:23;;;;;;;20.67;14.52;;;;;;;;;;5049275;28;20056;-66
2023/05/22 05:08:51;;;;;;;19.60;14.20;;;;;;;;;;5050434;28;20045;-66
2023/05/22 05:11:18;;;;;;;20.65;14.60;;;;;;;;;;5049333;28;20087;-66
2023/05/22 05:13:46;;;;;;;21.08;15.25;;;;;;;;;;5050049;28;20045;-66
2023/05/22 05:16:12;;;;;;;21.58;15.02;;;;;;;;;;5049376;28;20053;-66
2023/05/22 05:18:39;;;;;;;21.48;14.88;;;;;;;;;;5049646;28;20064;-66
2023/05/22 05:21:05;;;;;;;24.63;15.00;;;;;;;;;;5049274;28;20533;-66
2023/05/22 05:23:32;;;;;;;20.90;15.48;;;;;;;;;;5049878;28;20510;-66
2023/05/22 05:25:58;;;;;;;22.77;15.05;;;;;;;;;;5049931;28;20461;-66
2023/05/22 05:28:25;;;;;;;18.25;14.02;;;;;;;;;;5049191;28;20044;-66
2023/05/22 05:30:53;;;;;;;20.52;14.70;;;;;;;;;;5049438;28;20107;-66
2023/05/22 05:33:20;;;;;;;20.35;14.63;;;;;;;;;;5049064;28;20053;-66
2023/05/22 05:35:49;;;;;;;22.35;15.15;;;;;;;;;;5049889;28;20402;-66
2023/05/22 05:38:15;;;;;;;22.80;16.20;;;;;;;;;;5049538;28;20130;-66
2023/05/22 05:40:42;;;;;;;21.63;15.55;;;;;;;;;;5049465;28;20210;-67
2023/05/22 05:43:09;;;;;;;22.92;15.02;;;;;;;;;;5049158;28;20469;-66
2023/05/22 05:45:35;;;;;;;20.50;15.40;;;;;;;;;;5049574;28;20223;-66
2023/05/22 05:48:04;;;;;;;21.27;14.82;;;;;;;;;;5049967;28;20136;-67
2023/05/22 05:50:31;;;;;;;20.92;15.85;;;;;;;;;;5053333;28;20314;-66
2023/05/22 05:52:57;;;;;;;22.88;15.48;;;;;;;;;;5053300;28;20053;-64
2023/05/22 05:55:24;;;;;;;21.20;15.30;;;;;;;;;;5053265;28;20091;-65
2023/05/22 05:57:51;;;;;;;20.40;14.90;;;;;;;;;;5048597;28;20132;-63
2023/05/22 06:00:18;;;;;;;20.52;14.50;;;;;;;;;;5052678;28;20056;-63
2023/05/22 06:02:45;;;;;;;18.98;15.20;;;;;;;;;;5053485;28;20422;-64
2023/05/22 06:05:14;;;;;;;21.80;15.13;;;;;;;;;;5052777;28;20120;-64
2023/05/22 06:07:41;;;;;;;18.35;14.70;;;;;;;;;;5053212;28;20057;-65
2023/05/22 06:10:10;;;;;;;20.73;14.45;;;;;;;;;;5050161;28;20048;-66
2023/05/22 06:12:37;;;;;;;19.92;14.35;;;;;;;;;;5031902;28;20045;-66
2023/05/22 06:15:06;;;;;;;18.45;15.00;;;;;;;;;;5042026;28;20060;-65
2023/05/22 06:17:32;;;;;;;21.85;15.63;;;;;;;;;;5051781;28;20102;-66
2023/05/22 06:19:59;;;;;;;19.50;15.20;;;;;;;;;;5051440;28;20049;-65
2023/05/22 06:22:28;;;;;;;18.00;14.60;;;;;;;;;;5051641;28;20430;-65
2023/05/22 06:24:55;;;;;;;19.95;14.35;;;;;;;;;;5052110;28;20049;-65
2023/05/22 06:27:22;;;;;;;18.60;14.30;;;;;;;;;;5049884;28;20044;-66
2023/05/22 06:29:49;;;;;;;18.58;13.98;;;;;;;;;;5051199;28;20052;-66
2023/05/22 06:32:16;;;;;;;18.85;14.65;;;;;;;;;;5051383;28;20045;-66
2023/05/22 06:34:44;;;;;;;17.98;13.68;;;;;;;;;;5045353;28;20060;-66
2023/05/22 06:37:10;;;;;;;17.27;14.52;;;;;;;;;;5051391;28;20041;-66
2023/05/22 06:39:38;;;;;;;18.63;14.32;;;;;;;;;;5050834;28;20056;-66
2023/05/22 06:42:05;;;;;;;18.83;14.25;;;;;;;;;;5051833;28;20056;-65
2023/05/22 06:44:32;;;;;;;18.50;14.60;;;;;;;;;;5051573;28;20079;-66
2023/05/22 06:46:59;;;;;;;18.75;14.35;;;;;;;;;;5043659;28;20053;-66
2023/05/22 06:49:25;;;;;;;19.50;14.32;;;;;;;;;;5032484;28;20521;-66
2023/05/22 06:51:52;;;;;;;17.95;14.15;;;;;;;;;;5046440;28;20060;-66
2023/05/22 06:54:20;;;;;;;18.60;15.02;;;;;;;;;;5049607;28;20045;-65
2023/05/22 06:56:51;;;;;;;20.90;14.93;;;;;;;;;;5036703;28;20142;-67
2023/05/22 06:59:17;;;;;;;20.58;14.98;;;;;;;;;;5050213;28;20049;-67
2023/05/22 07:01:44;;;;;;;18.73;14.13;;;;;;;;;;5050700;28;20064;-66
2023/05/22 07:04:12;;;;;;;19.58;14.70;;;;;;;;;;5051265;28;20136;-65
2023/05/22 07:06:40;;;;;;;17.90;13.98;;;;;;;;;;5051148;28;20045;-66
2023/05/22 07:09:07;;;;;;;18.60;14.68;;;;;;;;;;5051312;28;20041;-67
2023/05/22 07:11:34;;;;;;;17.27;13.68;;;;;;;;;;5046163;28;20041;-66
2023/05/22 07:14:02;;;;;;;19.33;15.07;;;;;;;;;;5051345;28;20419;-67
2023/05/22 07:16:29;;;;;;;18.83;14.80;;;;;;;;;;5044475;28;20186;-67
2023/05/22 07:18:56;;;;;;;22.45;16.08;;;;;;;;;;5031704;28;20132;-67
2023/05/22 07:21:23;;;;;;;21.67;15.40;;;;;;;;;;5037108;28;20184;-68
2023/05/22 07:23:51;;;;;;;20.92;15.45;;;;;;;;;;5047822;28;20060;-66
2023/05/22 07:26:17;;;;;;;21.92;14.93;;;;;;;;;;5050659;28;20048;-67
2023/05/22 07:28:44;;;;;;;23.85;15.63;;;;;;;;;;5049935;28;20055;-66
2023/05/22 07:31:12;;;;;;;21.63;15.85;;;;;;;;;;5046782;28;20056;-68
2023/05/22 07:33:39;;;;;;;22.70;17.30;;;;;;;;;;5049821;28;20449;-66
2023/05/22 07:36:06;;;;;;;22.23;17.10;;;;;;;;;;5045823;28;20049;-67
2023/05/22 07:38:32;;;;;;;23.02;17.10;;;;;;;;;;5050394;28;20049;-67
2023/05/22 07:40:59;;;;;;;25.50;17.65;;;;;;;;;;5036888;28;20064;-66
2023/05/22 07:43:25;;;;;;;24.30;17.52;;;;;;;;;;5029520;28;20053;-65
2023/05/22 07:45:52;;;;;;;23.85;16.95;;;;;;;;;;5049790;28;20060;-65
2023/05/22 07:48:20;;;;;;;28.15;16.63;;;;;;;;;;5049755;28;20482;-65
2023/05/22 07:50:47;;;;;;;23.55;16.42;;;;;;;;;;5033045;28;20052;-65
2023/05/22 07:53:13;;;;;;;22.88;16.48;;;;;;;;;;5049006;28;20391;-64
2023/05/22 07:55:40;;;;;;;23.27;17.45;;;;;;;;;;5045490;28;20322;-64
2023/05/22 07:58:07;;;;;;;24.15;17.40;;;;;;;;;;5039380;28;20049;-64
2023/05/22 08:00:33;;;;;;;27.77;16.52;;;;;;;;;;5029240;28;20042;-64
2023/05/22 08:03:00;;;;;;;27.25;16.85;;;;;;;;;;5040280;28;20041;-64
2023/05/22 08:05:28;;;;;;;22.70;17.40;;;;;;;;;;5045598;28;20048;-64
2023/05/22 08:07:54;;;;;;;23.05;16.60;;;;;;;;;;5029910;28;20049;-64
2023/05/22 08:10:21;;;;;;;19.45;15.30;;;;;;;;;;5042919;28;20060;-66
2023/05/22 08:12:47;;;;;;;24.20;16.92;;;;;;;;;;5039781;28;20077;-64
2023/05/22 08:15:14;;;;;;;18.88;15.43;;;;;;;;;;5041330;28;20052;-64
2023/05/22 08:17:41;;;;;;;22.55;16.92;;;;;;;;;;5046288;28;20056;-64
2023/05/22 08:20:09;;;;;;;22.77;15.98;;;;;;;;;;5048541;28;20053;-64
2023/05/22 08:22:37;;;;;;;21.75;15.05;;;;;;;;;;5049697;28;20053;-64
2023/05/22 08:25:04;;;;;;;18.38;15.48;;;;;;;;;;5048590;28;20495;-64
2023/05/22 08:27:30;;;;;;;21.70;16.40;;;;;;;;;;5044471;28;20053;-64
2023/05/22 08:29:57;;;;;;;21.27;15.82;;;;;;;;;;5029519;28;20048;-64
2023/05/22 08:32:23;;;;;;;18.20;15.52;;;;;;;;;;5029835;28;20495;-64
2023/05/22 08:34:50;;;;;;;19.92;15.02;;;;;;;;;;5038087;28;20060;-64
2023/05/22 08:37:16;;;;;;;18.60;14.40;;;;;;;;;;5035123;28;20041;-64
2023/05/22 08:39:44;;;;;;;20.52;15.05;;;;;;;;;;5041557;28;20483;-64
2023/05/22 08:42:11;;;;;;;21.33;14.77;;;;;;;;;;5048309;28;20037;-64
2023/05/22 08:44:37;;;;;;;18.00;14.50;;;;;;;;;;5049362;28;20554;-64
2023/05/22 08:47:08;;;;;;;18.45;14.25;;;;;;;;;;5049688;28;20049;-65
2023/05/22 08:49:35;;;;;;;17.13;13.75;;;;;;;;;;5049441;28;20049;-64
2023/05/22 08:52:07;;;;;;;19.90;13.52;;;;;;;;;;5050225;28;20049;-64
2023/05/22 08:54:36;;;;;;;19.77;13.55;;;;;;;;;;5049483;28;20048;-65
2023/05/22 08:57:05;;;;;;;17.85;13.73;;;;;;;;;;5049791;28;20045;-64
2023/05/22 08:59:32;;;;;;;17.52;14.00;;;;;;;;;;5034174;28;20200;-65
2023/05/22 09:01:59;;;;;;;16.63;13.25;;;;;;;;;;5043112;28;20493;-65
2023/05/22 09:04:27;;;;;;;18.20;14.25;;;;;;;;;;5049073;28;20483;-65
2023/05/22 09:06:53;;;;;;;17.20;14.23;;;;;;;;;;5047047;22;20506;-71
2023/05/22 09:09:20;;;;;;;23.00;14.45;;;;;;;;;;5043684;28;20052;-72
2023/05/22 09:11:47;;;;;;;20.40;14.70;;;;;;;;;;5047200;28;22147;-69
2023/05/22 09:14:15;;;;;;;16.73;13.95;;;;;;;;;;5049188;28;20432;-70
2023/05/22 09:16:45;;;;;;;19.77;15.15;;;;;;;;;;5038517;28;20120;-70
2023/05/22 09:19:13;;;;;;;18.35;14.57;;;;;;;;;;5039254;28;20072;-72
2023/05/22 09:21:40;;;;;;;17.67;14.73;;;;;;;;;;5033054;28;20095;-71
2023/05/22 09:24:09;;;;;;;18.13;14.10;;;;;;;;;;5040921;28;20292;-71
2023/05/22 09:26:35;;;;;;;17.63;13.45;;;;;;;;;;5045314;28;20041;-71
2023/05/22 09:29:02;;;;;;;18.42;14.48;;;;;;;;;;5051288;28;20053;-71
2023/05/22 09:31:31;;;;;;;16.65;14.77;;;;;;;;;;5040338;28;20490;-72
2023/05/22 09:33:58;;;;;;;17.00;13.68;;;;;;;;;;5045876;28;20495;-71
2023/05/22 09:36:31;;;;;;;18.38;14.15;;;;;;;;;;5043214;28;20447;-72
2023/05/22 09:39:00;;;;;;;17.65;14.73;;;;;;;;;;5052976;28;20056;-72
2023/05/22 09:41:29;;;;;;;18.90;14.25;;;;;;;;;;5045468;28;20048;-71
2023/05/22 09:43:55;;;;;;;16.88;13.27;;;;;;;;;;5049146;28;20563;-71
2023/05/22 09:46:22;;;;;;;14.02;12.30;;;;;;;;;;5051406;28;20049;-72
2023/05/22 09:48:53;;;;;;;14.18;12.23;;;;;;;;;;5052305;28;20045;-71
2023/05/22 09:51:22;;;;;;;15.45;11.77;;;;;;;;;;5051908;28;20049;-71
2023/05/22 09:53:49;;;;;;;13.45;11.93;;;;;;;;;;5050603;28;20076;-72
2023/05/22 09:56:18;;;;;;;13.23;11.82;;;;;;;;;;5049652;28;20052;-72
2023/05/22 09:58:46;;;;;;;15.77;12.95;;;;;;;;;;5053195;28;20049;-72
2023/05/22 10:01:15;;;;;;;15.00;12.82;;;;;;;;;;5050178;28;20041;-72
2023/05/22 10:03:43;;;;;;;16.25;12.13;;;;;;;;;;5048819;28;20371;-72
2023/05/22 10:06:12;;;;;;;16.60;11.68;;;;;;;;;;5049478;28;20110;-72
2023/05/22 10:08:43;;;;;;;14.80;12.20;;;;;;;;;;5050610;28;20106;-72
2023/05/22 10:11:11;;;;;;;19.30;12.60;;;;;;;;;;5049735;28;20091;-72
2023/05/22 10:13:38;;;;;;;17.25;12.93;;;;;;;;;;5053618;28;20410;-72
2023/05/22 10:16:06;;;;;;;15.75;12.45;;;;;;;;;;5052785;28;20081;-72
2023/05/22 10:18:33;;;;;;;14.32;12.30;;;;;;;;;;5053348;28;20049;-72
2023/05/22 10:21:01;;;;;;;18.67;12.63;;;;;;;;;;5047978;28;20052;-72
2023/05/22 10:23:30;;;;;;;17.05;13.02;;;;;;;;;;5052638;28;20140;-72
2023/05/22 10:25:57;;;;;;;16.05;13.88;;;;;;;;;;5049713;28;20049;-73
2023/05/22 10:28:28;;;;;;;15.45;12.68;;;;;;;;;;5041240;28;20477;-73
2023/05/22 10:31:01;;;;;;;17.25;13.00;;;;;;;;;;5039937;28;20063;-73
2023/05/22 10:33:32;;;;;;;19.95;11.95;;;;;;;;;;5048693;28;20075;-73
2023/05/22 10:36:03;;;;;;;15.68;13.20;;;;;;;;;;5046367;28;20049;-73
2023/05/22 10:38:54;;;;;;;17.40;12.75;;;;;;;;;;5050120;28;20097;-73
2023/05/22 10:41:22;;;;;;;17.65;13.20;;;;;;;;;;5033938;28;20080;-73
2023/05/22 10:43:50;;;;;;;17.33;13.95;;;;;;;;;;5045500;28;20051;-73
2023/05/22 10:46:17;;;;;;;18.95;12.98;;;;;;;;;;5047397;28;20073;-73
2023/05/22 10:48:45;;;;;;;15.55;13.18;;;;;;;;;;5051901;28;20044;-73
2023/05/22 10:51:13;;;;;;;13.15;11.68;;;;;;;;;;5046636;28;20041;-73
2023/05/22 10:53:42;;;;;;;14.32;11.73;;;;;;;;;;5050896;28;20065;-73
2023/05/22 10:56:12;;;;;;;13.13;11.73;;;;;;;;;;5052814;28;20080;-73
2023/05/22 10:58:39;;;;;;;15.82;12.57;;;;;;;;;;5045006;28;20093;-73
2023/05/22 11:01:11;;;;;;;13.63;11.55;;;;;;;;;;5044073;28;20118;-73
2023/05/22 11:03:55;;;;;;;13.88;11.77;;;;;;;;;;5040538;28;20208;-73
2023/05/22 11:06:35;;;;;;;13.98;12.18;;;;;;;;;;5041822;28;20041;-73
2023/05/22 11:09:18;;;;;;;14.65;13.05;;;;;;;;;;5041935;28;20127;-73
2023/05/22 11:11:46;;;;;;;14.85;12.30;;;;;;;;;;5049492;28;20091;-73
2023/05/22 11:14:16;;;;;;;13.80;12.02;;;;;;;;;;5051180;28;20061;-73
2023/05/22 11:16:43;;;;;;;14.40;12.15;;;;;;;;;;5039568;28;20533;-73
2023/05/22 11:19:10;;;;;;;14.90;11.18;;;;;;;;;;5038285;28;20045;-73
2023/05/22 11:21:43;;;;;;;14.85;12.23;;;;;;;;;;5040046;28;20148;-72
2023/05/22 11:24:10;;;;;;;15.40;11.73;;;;;;;;;;5040831;28;20048;-72
2023/05/22 11:26:37;;;;;;;14.18;11.98;;;;;;;;;;5042670;28;20430;-72
2023/05/22 11:29:07;;;;;;;13.80;11.85;;;;;;;;;;5045075;28;20052;-72
2023/05/22 11:31:35;;;;;;;13.20;11.43;;;;;;;;;;5046203;28;20128;-72
2023/05/22 11:34:02;;;;;;;13.40;11.45;;;;;;;;;;5038223;28;20483;-72
2023/05/22 11:36:30;;;;;;;13.52;12.10;;;;;;;;;;5045574;28;20471;-72
2023/05/22 11:38:58;;;;;;;12.68;11.40;;;;;;;;;;5047666;28;20137;-72
2023/05/22 11:41:25;;;;;;;14.90;11.38;;;;;;;;;;5030737;28;20495;-72
2023/05/22 11:43:51;;;;;;;13.93;11.70;;;;;;;;;;5031868;28;20052;-72
2023/05/22 11:46:19;;;;;;;13.73;11.55;;;;;;;;;;5046154;28;20068;-72
2023/05/22 11:48:47;;;;;;;12.73;11.43;;;;;;;;;;5038335;28;20463;-72
2023/05/22 11:51:18;;;;;;;12.93;11.30;;;;;;;;;;5040554;28;20056;-72
2023/05/22 11:53:45;;;;;;;12.52;11.23;;;;;;;;;;5040492;28;20048;-72
2023/05/22 11:56:11;;;;;;;14.68;11.50;;;;;;;;;;5050401;28;20087;-72
2023/05/22 11:58:38;;;;;;;12.73;11.48;;;;;;;;;;5046566;28;20659;-72
2023/05/22 12:01:05;;;;;;;13.65;11.13;;;;;;;;;;5036286;28;20506;-73
2023/05/22 12:03:33;;;;;;;12.02;10.68;;;;;;;;;;5044238;28;20036;-72
2023/05/22 12:06:01;;;;;;;11.73;10.38;;;;;;;;;;5045020;28;20045;-72
2023/05/22 12:08:28;;;;;;;14.18;11.05;;;;;;;;;;5047081;28;20091;-72
2023/05/22 12:10:55;;;;;;;13.70;11.02;;;;;;;;;;5049533;28;20049;-71
2023/05/22 12:13:23;;;;;;;12.32;10.20;;;;;;;;;;5049200;28;20418;-72
2023/05/22 12:15:50;;;;;;;12.57;10.30;;;;;;;;;;5050069;28;20060;-72
2023/05/22 12:18:18;;;;;;;12.93;10.20;;;;;;;;;;5036323;28;20545;-72
2023/05/22 12:20:46;;;;;;;11.30;10.20;;;;;;;;;;5043952;28;20048;-72
2023/05/22 12:23:20;;;;;;;11.85;10.55;;;;;;;;;;5047145;28;20041;-73
2023/05/22 12:25:46;;;;;;;12.07;10.75;;;;;;;;;;5036277;28;20045;-72
2023/05/22 12:28:13;;;;;;;11.63;10.27;;;;;;;;;;5043798;28;20268;-72
2023/05/22 12:30:41;;;;;;;11.52;10.25;;;;;;;;;;5049623;28;20053;-72
2023/05/22 12:33:13;;;;;;;11.55;10.23;;;;;;;;;;5044853;28;20041;-72
2023/05/22 12:35:39;;;;;;;11.75;9.60;;;;;;;;;;5038009;28;20049;-72
2023/05/22 12:38:08;;;;;;;11.70;10.50;;;;;;;;;;5048878;28;20052;-73
2023/05/22 12:40:34;;;;;;;11.43;10.25;;;;;;;;;;5040705;28;20536;-72
2023/05/22 12:43:01;;;;;;;10.63;9.50;;;;;;;;;;5050478;28;20123;-73
2023/05/22 12:45:27;;;;;;;11.85;10.65;;;;;;;;;;5049838;28;20041;-72
2023/05/22 12:47:54;;;;;;;11.40;10.23;;;;;;;;;;5045269;28;20487;-71
2023/05/22 12:50:20;;;;;;;11.50;10.05;;;;;;;;;;5047903;28;20045;-72
2023/05/22 12:52:47;;;;;;;10.95;9.85;;;;;;;;;;5047666;28;20041;-72
2023/05/22 12:55:15;;;;;;;10.68;9.52;;;;;;;;;;5044477;28;20048;-73
2023/05/22 12:57:41;;;;;;;10.80;9.77;;;;;;;;;;5040928;28;20041;-73
2023/05/22 13:00:10;;;;;;;10.70;9.07;;;;;;;;;;5045373;28;20127;-72
2023/05/22 13:02:36;;;;;;;9.10;6.70;;;;;;;;;;5043849;28;20049;-71
2023/05/22 13:05:03;;;;;;;7.40;6.60;;;;;;;;;;5036481;28;20053;-72
2023/05/22 13:07:30;;;;;;;11.82;6.93;;;;;;;;;;5043152;28;20049;-72
2023/05/22 13:09:56;;;;;;;8.38;6.80;;;;;;;;;;5038211;28;20096;-72
2023/05/22 13:12:25;;;;;;;18.08;7.82;;;;;;;;;;5049263;28;20041;-71
2023/05/22 13:14:52;;;;;;;15.82;8.48;;;;;;;;;;5047022;28;20059;-72
2023/05/22 13:17:18;;;;;;;10.60;8.85;;;;;;;;;;5050123;28;20052;-72
2023/05/22 13:19:45;;;;;;;9.48;7.50;;;;;;;;;;5049766;28;20495;-72
2023/05/22 13:22:12;;;;;;;9.50;7.90;;;;;;;;;;5050027;28;20048;-71
2023/05/22 13:24:38;;;;;;;11.13;8.60;;;;;;;;;;5049954;28;20041;-72
2023/05/22 13:27:05;;;;;;;13.65;8.90;;;;;;;;;;5050238;28;20045;-72
2023/05/22 13:29:33;;;;;;;16.65;10.88;;;;;;;;;;5049981;28;20057;-70
2023/05/22 13:32:00;;;;;;;13.32;10.13;;;;;;;;;;5050381;28;20041;-71
2023/05/22 13:34:27;;;;;;;13.70;8.93;;;;;;;;;;5049976;28;20414;-71
2023/05/22 13:36:54;;;;;;;11.93;8.25;;;;;;;;;;5028775;28;20095;-72
2023/05/22 13:39:20;;;;;;;10.30;8.15;;;;;;;;;;5030139;28;20294;-72
2023/05/22 13:41:47;;;;;;;11.20;8.77;;;;;;;;;;5029678;28;20396;-72
2023/05/22 13:44:14;;;;;;;12.25;9.60;;;;;;;;;;5030096;28;20056;-72
2023/05/22 13:46:41;;;;;;;10.75;9.27;;;;;;;;;;5029669;28;20055;-72
2023/05/22 13:49:08;;;;;;;11.20;8.50;;;;;;;;;;5030027;28;20052;-71
2023/05/22 13:51:35;;;;;;;13.63;8.73;;;;;;;;;;5029284;28;20049;-72
2023/05/22 13:54:02;;;;;;;12.35;8.70;;;;;;;;;;5030128;28;20045;-73
2023/05/22 13:56:29;;;;;;;10.50;8.13;;;;;;;;;;5029424;28;20050;-74
2023/05/22 13:58:55;;;;;;;9.80;7.75;;;;;;;;;;5029952;28;20136;-72
2023/05/22 14:01:22;;;;;;;10.82;7.70;;;;;;;;;;5029051;28;20056;-73
2023/05/22 14:03:50;;;;;;;10.15;8.02;;;;;;;;;;5030012;28;20049;-72
2023/05/22 14:06:17;;;;;;;10.35;7.75;;;;;;;;;;5029512;28;20050;-72
2023/05/22 14:08:44;;;;;;;11.32;7.57;;;;;;;;;;5029715;28;20183;-71
2023/05/22 14:11:10;;;;;;;9.82;8.32;;;;;;;;;;5031649;28;20506;-72
2023/05/22 14:13:37;;;;;;;7.68;6.88;;;;;;;;;;5032990;28;20053;-72
2023/05/22 14:16:03;;;;;;;7.30;6.20;;;;;;;;;;5033283;28;20553;-72
2023/05/22 14:18:31;;;;;;;12.85;7.43;;;;;;;;;;5031314;28;20062;-72
2023/05/22 14:20:59;;;;;;;7.20;6.20;;;;;;;;;;5033179;28;20045;-72
2023/05/22 14:23:25;;;;;;;8.65;5.72;;;;;;;;;;5032817;28;20128;-72